createdAt,value
2022-12-15T00:02:25.120Z,77.93
2022-12-15T00:05:10.481Z,77.15
2022-12-15T00:07:55.744Z,77.62
2022-12-15T00:10:41.432Z,78.06
2022-12-15T00:13:30.888Z,77.52
2022-12-15T00:16:17.040Z,77.42
2022-12-15T00:19:05.537Z,77.38
2022-12-15T00:21:50.730Z,77.61
2022-12-15T00:24:36.391Z,77.34
2022-12-15T00:27:22.514Z,77.77
2022-12-15T00:30:07.735Z,77.85
2022-12-15T00:32:53.584Z,78.15
2022-12-15T00:35:38.630Z,77.91
2022-12-15T00:38:28.822Z,76.67
2022-12-15T00:40:59.489Z,77.07
2022-12-15T00:43:27.926Z,77.33
2022-12-15T00:46:13.494Z,77.79
2022-12-15T00:48:41.295Z,77.58
2022-12-15T00:51:08.471Z,77.82
2022-12-15T00:53:53.814Z,77.12
2022-12-15T00:56:38.988Z,77.31
2022-12-15T00:59:24.348Z,77.21
2022-12-15T01:10:33.900Z,77.52
2022-12-15T01:13:19.368Z,77.56
2022-12-15T01:16:04.379Z,77.45
2022-12-15T01:18:52.888Z,77.78
2022-12-15T01:21:24.300Z,77.18
2022-12-15T01:23:52.055Z,77.89
2022-12-15T01:26:18.631Z,77.92
2022-12-15T01:28:45.173Z,77.44
2022-12-15T01:31:12.470Z,77.29
2022-12-15T01:33:42.678Z,77.72
2022-12-15T01:36:10.087Z,77.76
2022-12-15T01:38:36.721Z,77.98
2022-12-15T01:41:06.324Z,77.65
2022-12-15T01:43:35.754Z,77.71
2022-12-15T01:46:35.938Z,77.60
2022-12-15T01:49:17.521Z,78.59
2022-12-15T01:51:52.290Z,78.08
2022-12-15T01:54:18.757Z,78.35
2022-12-15T01:56:49.982Z,78.54
2022-12-15T01:59:29.207Z,77.88
2022-12-15T02:01:55.955Z,77.95
2022-12-15T02:04:23.843Z,78.48
2022-12-15T02:06:50.795Z,78.44
2022-12-15T02:09:18.711Z,78.60
2022-12-15T02:12:02.675Z,78.90
2022-12-15T02:14:45.361Z,78.74
2022-12-15T02:17:45.488Z,78.55
2022-12-15T02:20:49.927Z,78.40
2022-12-15T02:23:47.139Z,78.13
2022-12-15T02:26:42.117Z,78.68
2022-12-15T02:29:13.172Z,78.84
2022-12-15T02:32:00.052Z,78.83
2022-12-15T02:34:34.537Z,79.66
2022-12-15T02:37:16.772Z,80.59
2022-12-15T02:39:43.628Z,81.77
2022-12-15T02:42:13.994Z,81.49
2022-12-15T02:45:01.703Z,82.30
2022-12-15T02:47:34.382Z,82.97
2022-12-15T02:50:33.362Z,83.02
2022-12-15T02:53:31.542Z,83.29
2022-12-15T02:56:10.549Z,83.25
2022-12-15T02:58:48.357Z,83.69
2022-12-15T03:01:26.549Z,83.47
2022-12-15T03:03:53.832Z,83.55
2022-12-15T03:06:20.502Z,83.89
2022-12-15T03:08:47.498Z,83.93
2022-12-15T03:11:14.079Z,83.96
2022-12-15T03:13:40.603Z,83.76
2022-12-15T03:16:07.269Z,83.44
2022-12-15T03:18:34.162Z,83.91
2022-12-15T03:21:00.751Z,84.40
2022-12-15T03:23:27.335Z,84.84
2022-12-15T03:25:54.028Z,83.77
2022-12-15T03:28:20.621Z,84.44
2022-12-15T03:30:50.636Z,84.11
2022-12-15T03:33:17.771Z,84.65
2022-12-15T03:35:44.397Z,84.82
2022-12-15T03:38:10.942Z,84.06
2022-12-15T03:40:37.468Z,84.47
2022-12-15T03:43:04.005Z,84.16
2022-12-15T03:45:30.663Z,84.70
2022-12-15T03:47:57.719Z,84.75
2022-12-15T03:50:26.931Z,84.06
2022-12-15T03:52:56.453Z,84.86
2022-12-15T03:55:23.708Z,84.61
2022-12-15T03:57:51.262Z,84.53
2022-12-15T04:00:20.040Z,84.80
2022-12-15T04:02:49.976Z,84.86
2022-12-15T04:05:27.778Z,84.63
2022-12-15T04:07:56.643Z,84.86
2022-12-15T04:10:31.734Z,84.79
2022-12-15T04:13:02.885Z,84.11
2022-12-15T04:15:29.662Z,84.60
2022-12-15T04:17:56.769Z,84.48
2022-12-15T04:20:23.300Z,84.09
2022-12-15T04:22:50.934Z,84.60
2022-12-15T04:25:39.764Z,84.38
2022-12-15T04:28:25.889Z,84.72
2022-12-15T04:31:36.704Z,84.66
2022-12-15T04:34:25.813Z,84.28
2022-12-15T04:37:12.349Z,84.51
2022-12-15T04:40:09.429Z,84.97
2022-12-15T04:42:59.359Z,85.21
2022-12-15T04:45:44.602Z,84.79
2022-12-15T04:48:29.947Z,84.53
2022-12-15T04:51:15.513Z,84.69
2022-12-15T04:54:04.259Z,84.45
2022-12-15T04:56:50.948Z,84.07
2022-12-15T04:59:36.627Z,84.34
2022-12-15T05:02:22.084Z,83.74
2022-12-15T05:05:07.127Z,83.66
2022-12-15T05:07:55.203Z,84.20
2022-12-15T05:10:40.671Z,83.65
2022-12-15T05:13:26.831Z,84.06
2022-12-15T05:16:12.418Z,83.53
2022-12-15T05:18:58.120Z,83.75
2022-12-15T05:21:43.059Z,84.20
2022-12-15T05:24:28.307Z,84.41
2022-12-15T05:27:13.405Z,84.27
2022-12-15T05:29:58.694Z,84.43
2022-12-15T05:32:25.309Z,84.40
2022-12-15T05:34:51.852Z,84.60
2022-12-15T05:37:18.679Z,84.24
2022-12-15T05:39:45.576Z,84.08
2022-12-15T05:42:12.179Z,84.06
2022-12-15T05:44:38.855Z,84.71
2022-12-15T05:47:05.414Z,84.63
2022-12-15T05:49:32.104Z,84.51
2022-12-15T05:51:58.699Z,85.00
2022-12-15T05:54:25.513Z,84.91
2022-12-15T05:56:52.579Z,84.96
2022-12-15T05:59:19.437Z,85.36
2022-12-15T06:01:46.485Z,85.21
2022-12-15T06:04:13.488Z,85.22
2022-12-15T06:06:41.154Z,84.66
2022-12-15T06:09:08.350Z,84.87
2022-12-15T06:11:35.065Z,85.44
2022-12-15T06:14:01.676Z,85.30
2022-12-15T06:16:28.359Z,85.24
2022-12-15T06:18:58.527Z,84.95
2022-12-15T06:21:31.691Z,85.16
2022-12-15T06:23:58.538Z,85.32
2022-12-15T06:26:30.856Z,85.11
2022-12-15T06:28:59.231Z,85.26
2022-12-15T06:31:26.968Z,85.25
2022-12-15T06:34:01.810Z,85.02
2022-12-15T06:36:30.857Z,84.95
2022-12-15T06:39:03.360Z,85.21
2022-12-15T06:41:30.993Z,85.05
2022-12-15T06:43:58.599Z,85.44
2022-12-15T06:46:26.824Z,84.88
2022-12-15T06:48:53.579Z,85.02
2022-12-15T06:51:20.404Z,84.45
2022-12-15T06:53:50.888Z,84.39
2022-12-15T06:56:37.718Z,84.21
2022-12-15T06:59:05.916Z,84.42
2022-12-15T07:01:32.975Z,84.31
2022-12-15T07:04:02.891Z,84.30
2022-12-15T07:06:36.150Z,84.67
2022-12-15T07:09:04.058Z,84.49
2022-12-15T07:11:30.546Z,84.77
2022-12-15T07:13:57.097Z,84.90
2022-12-15T07:16:24.801Z,85.17
2022-12-15T07:18:52.293Z,85.13
2022-12-15T07:21:19.461Z,84.95
2022-12-15T07:23:54.588Z,85.52
2022-12-15T07:26:23.681Z,85.52
2022-12-15T07:28:50.319Z,85.38
2022-12-15T07:31:17.757Z,85.10
2022-12-15T07:33:44.826Z,85.62
2022-12-15T07:36:12.179Z,85.87
2022-12-15T07:38:38.975Z,85.91
2022-12-15T07:41:07.909Z,85.88
2022-12-15T07:43:35.901Z,85.88
2022-12-15T07:46:05.004Z,85.85
2022-12-15T07:48:32.966Z,86.06
2022-12-15T07:51:10.934Z,85.99
2022-12-15T07:53:39.093Z,85.76
2022-12-15T07:56:08.992Z,85.77
2022-12-15T07:58:37.543Z,85.86
2022-12-15T08:01:08.001Z,85.58
2022-12-15T08:03:35.915Z,85.93
2022-12-15T08:06:06.317Z,85.45
2022-12-15T08:08:34.318Z,85.76
2022-12-15T08:11:06.330Z,85.47
2022-12-15T08:16:23.562Z,85.78
2022-12-15T08:18:50.361Z,85.46
2022-12-15T08:21:17.062Z,85.43
2022-12-15T08:23:43.587Z,85.49
2022-12-15T08:26:13.600Z,85.47
2022-12-15T08:28:41.243Z,85.29
2022-12-15T08:31:13.450Z,85.08
2022-12-15T08:33:40.826Z,85.47
2022-12-15T08:36:10.221Z,85.35
2022-12-15T08:38:38.698Z,85.49
2022-12-15T08:41:11.131Z,85.34
2022-12-15T08:43:43.865Z,85.70
2022-12-15T08:46:17.067Z,85.48
2022-12-15T08:48:44.054Z,85.77
2022-12-15T08:51:10.867Z,85.61
2022-12-15T08:53:38.649Z,85.59
2022-12-15T08:56:07.954Z,85.47
2022-12-15T08:58:34.747Z,85.83
2022-12-15T09:01:04.240Z,85.58
2022-12-15T09:03:31.601Z,85.81
2022-12-15T09:06:06.052Z,85.95
2022-12-15T09:08:35.905Z,85.70
2022-12-15T09:11:02.526Z,85.61
2022-12-15T09:13:29.750Z,85.60
2022-12-15T09:16:10.336Z,85.79
2022-12-15T09:18:38.083Z,85.68
2022-12-15T09:21:07.246Z,85.48
2022-12-15T09:23:35.667Z,85.65
2022-12-15T09:26:08.944Z,85.61
2022-12-15T09:28:35.967Z,85.67
2022-12-15T09:31:17.268Z,86.03
2022-12-15T09:33:44.515Z,85.92
2022-12-15T09:36:13.218Z,86.18
2022-12-15T09:38:41.616Z,86.36
2022-12-15T09:41:14.031Z,86.27
2022-12-15T09:43:54.149Z,85.98
2022-12-15T09:46:21.132Z,86.34
2022-12-15T09:48:50.311Z,85.87
2022-12-15T09:51:18.750Z,86.32
2022-12-15T09:53:55.473Z,86.20
2022-12-15T09:56:29.855Z,86.62
2022-12-15T09:59:21.817Z,86.49
2022-12-15T10:02:06.870Z,86.34
2022-12-15T10:05:10.599Z,86.29
2022-12-15T10:07:42.097Z,86.14
2022-12-15T10:10:28.307Z,85.50
2022-12-15T10:13:02.474Z,86.02
2022-12-15T10:15:37.877Z,86.03
2022-12-15T10:18:22.377Z,85.89
2022-12-15T10:20:52.125Z,85.47
2022-12-15T10:23:18.842Z,85.67
2022-12-15T10:26:20.811Z,85.01
2022-12-15T10:29:02.838Z,85.46
2022-12-15T10:31:52.242Z,85.16
2022-12-15T10:34:34.705Z,85.54
2022-12-15T10:37:03.688Z,85.53
2022-12-15T10:39:42.338Z,85.21
2022-12-15T10:42:12.777Z,85.23
2022-12-15T10:44:42.932Z,85.08
2022-12-15T10:47:31.201Z,85.55
2022-12-15T10:50:24.767Z,85.45
2022-12-15T10:52:51.979Z,85.40
2022-12-15T10:55:37.409Z,85.10
2022-12-15T10:58:15.556Z,84.84
2022-12-15T11:00:42.479Z,84.95
2022-12-15T11:03:26.095Z,84.84
2022-12-15T11:05:54.954Z,83.96
2022-12-15T11:08:22.887Z,83.99
2022-12-15T11:11:16.111Z,84.51
2022-12-15T11:14:07.090Z,84.51
2022-12-15T11:16:33.728Z,84.20
2022-12-15T11:19:21.758Z,83.94
2022-12-15T11:21:59.803Z,84.50
2022-12-15T11:24:40.204Z,84.32
2022-12-15T11:27:15.794Z,83.54
2022-12-15T11:30:00.433Z,83.51
2022-12-15T11:32:29.855Z,83.61
2022-12-15T11:34:56.785Z,83.63
2022-12-15T11:37:37.846Z,84.05
2022-12-15T11:40:23.578Z,84.48
2022-12-15T11:42:53.266Z,84.61
2022-12-15T11:45:36.656Z,84.67
2022-12-15T11:48:19.458Z,83.88
2022-12-15T11:51:06.490Z,83.62
2022-12-15T11:54:10.470Z,84.02
2022-12-15T11:56:47.368Z,84.11
2022-12-15T11:59:15.598Z,83.68
2022-12-15T12:02:02.963Z,83.79
2022-12-15T12:04:50.777Z,83.30
2022-12-15T12:07:42.316Z,83.80
2022-12-15T12:10:28.369Z,83.39
2022-12-15T12:13:11.903Z,83.85
2022-12-15T12:16:09.725Z,83.91
2022-12-15T12:18:52.575Z,83.88
2022-12-15T12:21:26.495Z,83.89
2022-12-15T12:24:00.652Z,83.66
2022-12-15T12:26:45.130Z,82.95
2022-12-15T12:29:13.057Z,83.27
2022-12-15T12:35:32.210Z,83.81
2022-12-15T12:38:04.444Z,83.49
2022-12-15T12:40:41.342Z,84.15
2022-12-15T12:43:14.026Z,83.58
2022-12-15T12:45:56.008Z,83.04
2022-12-15T12:48:27.850Z,83.03
2022-12-15T12:51:30.149Z,82.53
2022-12-15T12:53:58.876Z,82.88
2022-12-15T12:56:44.329Z,82.45
2022-12-15T12:59:50.944Z,82.27
2022-12-15T13:02:20.370Z,82.30
2022-12-15T13:04:57.228Z,81.95
2022-12-15T13:07:38.200Z,81.76
2022-12-15T13:10:04.912Z,81.72
2022-12-15T13:12:52.653Z,82.12
2022-12-15T13:15:42.930Z,81.66
2022-12-15T13:18:20.164Z,82.10
2022-12-15T13:23:43.301Z,81.36
2022-12-15T13:26:11.112Z,80.88
2022-12-15T13:28:40.250Z,80.98
2022-12-15T13:31:25.164Z,81.18
2022-12-15T13:33:54.767Z,80.78
2022-12-15T13:36:39.734Z,80.88
2022-12-15T13:39:12.489Z,80.63
2022-12-15T13:44:45.452Z,80.85
2022-12-15T13:47:14.425Z,80.76
2022-12-15T13:50:01.796Z,81.39
2022-12-15T13:55:28.128Z,80.88
2022-12-15T13:58:00.151Z,81.83
2022-12-15T14:00:27.080Z,81.45
2022-12-15T14:03:07.173Z,81.56
2022-12-15T14:05:33.805Z,81.54
2022-12-15T14:08:03.526Z,81.49
2022-12-15T14:10:32.861Z,81.35
2022-12-15T14:15:59.101Z,81.67
2022-12-15T14:18:27.380Z,81.61
2022-12-15T14:20:54.678Z,81.80
2022-12-15T14:23:26.473Z,81.73
2022-12-15T14:25:54.844Z,81.49
2022-12-15T14:28:27.291Z,81.07
2022-12-15T14:30:57.120Z,81.02
2022-12-15T14:33:28.205Z,80.70
2022-12-15T14:35:58.661Z,80.75
2022-12-15T14:38:40.023Z,81.16
2022-12-15T14:41:11.138Z,80.69
2022-12-15T14:43:39.782Z,81.29
2022-12-15T14:46:09.482Z,80.47
2022-12-15T14:48:41.788Z,80.70
2022-12-15T14:51:12.689Z,80.52
2022-12-15T14:53:42.152Z,80.48
2022-12-15T14:56:29.730Z,80.35
2022-12-15T14:59:04.303Z,80.57
2022-12-15T15:01:41.767Z,80.31
2022-12-15T15:03:10.166Z,81.49
2022-12-15T15:03:12.732Z,83.66
2022-12-15T15:03:13.043Z,82.13
2022-12-15T15:03:13.114Z,80.86
2022-12-15T15:03:14.222Z,81.95
2022-12-15T15:04:34.586Z,80.27
2022-12-15T15:07:04.776Z,80.17
2022-12-15T15:09:41.249Z,79.64
2022-12-15T15:12:14.513Z,79.91
2022-12-15T15:14:51.557Z,80.12
2022-12-15T15:17:31.151Z,80.00
2022-12-15T15:20:02.007Z,80.04
2022-12-15T15:22:39.901Z,79.67
2022-12-15T15:25:22.510Z,79.70
2022-12-15T15:27:49.623Z,79.53
2022-12-15T15:30:16.674Z,79.57
2022-12-15T15:32:57.493Z,79.72
2022-12-15T15:35:30.401Z,79.81
2022-12-15T15:38:12.130Z,79.83
2022-12-15T15:40:38.768Z,79.75
2022-12-15T15:43:12.644Z,79.49
2022-12-15T15:45:41.726Z,79.89
2022-12-15T15:48:14.902Z,80.18
2022-12-15T15:50:41.715Z,79.81
2022-12-15T15:53:15.313Z,79.74
2022-12-15T15:55:43.355Z,80.05
2022-12-15T15:58:13.189Z,80.19
2022-12-15T16:00:40.410Z,80.07
2022-12-15T16:03:07.634Z,80.17
2022-12-15T16:05:35.394Z,80.00
2022-12-15T16:08:03.732Z,80.36
2022-12-15T16:10:30.672Z,79.89
2022-12-15T16:13:01.154Z,80.17
2022-12-15T16:15:31.689Z,80.21
2022-12-15T16:17:59.195Z,80.08
2022-12-15T16:20:29.103Z,80.63
2022-12-15T16:23:15.879Z,80.40
2022-12-15T16:25:50.592Z,80.56
2022-12-15T16:28:20.444Z,80.64
2022-12-15T16:30:47.572Z,80.96
2022-12-15T16:33:14.778Z,80.68
2022-12-15T16:35:42.631Z,80.51
2022-12-15T16:38:15.811Z,80.11
2022-12-15T16:40:42.419Z,80.59
2022-12-15T16:43:22.021Z,79.99
2022-12-15T16:45:51.094Z,80.37
2022-12-15T16:48:18.479Z,80.04
2022-12-15T16:50:58.184Z,79.86
2022-12-15T16:53:27.606Z,79.80
2022-12-15T16:55:56.556Z,80.07
2022-12-15T16:58:25.314Z,79.74
2022-12-15T17:00:53.738Z,79.63
2022-12-15T17:03:26.176Z,79.78
2022-12-15T17:05:58.884Z,79.54
2022-12-15T17:08:33.190Z,79.76
2022-12-15T17:11:00.285Z,79.77
2022-12-15T17:13:39.217Z,79.59
2022-12-15T17:16:14.375Z,79.77
2022-12-15T17:18:42.796Z,79.99
2022-12-15T17:21:16.895Z,79.80
2022-12-15T17:23:45.886Z,79.59
2022-12-15T17:26:29.203Z,79.86
2022-12-15T17:28:59.745Z,79.98
2022-12-15T17:31:32.918Z,80.37
2022-12-15T17:34:02.716Z,80.22
2022-12-15T17:36:29.395Z,80.71
2022-12-15T17:39:00.786Z,81.10
2022-12-15T17:41:58.033Z,80.74
2022-12-15T17:44:33.064Z,80.67
2022-12-15T17:47:02.347Z,81.11
2022-12-15T17:49:35.030Z,81.65
2022-12-15T17:52:16.780Z,81.83
2022-12-15T17:54:43.453Z,81.85
2022-12-15T17:57:13.732Z,81.97
2022-12-15T17:59:40.444Z,81.81
2022-12-15T18:02:15.620Z,82.30
2022-12-15T18:04:43.843Z,81.82
2022-12-15T18:07:20.269Z,82.32
2022-12-15T18:09:47.861Z,82.08
2022-12-15T18:12:26.031Z,82.23
2022-12-15T18:14:53.261Z,81.96
2022-12-15T18:17:20.387Z,82.24
2022-12-15T18:19:47.545Z,82.37
2022-12-15T18:22:17.873Z,82.43
2022-12-15T18:24:44.729Z,82.46
2022-12-15T18:27:21.758Z,82.53
2022-12-15T18:29:49.374Z,82.28
2022-12-15T18:32:17.052Z,82.71
2022-12-15T18:34:43.832Z,82.68
2022-12-15T18:37:18.711Z,82.92
2022-12-15T18:39:46.274Z,82.63
2022-12-15T18:42:17.980Z,82.90
2022-12-15T18:44:52.298Z,82.46
2022-12-15T18:47:21.824Z,82.41
2022-12-15T18:49:49.233Z,82.36
2022-12-15T18:52:21.593Z,82.56
2022-12-15T18:54:50.417Z,82.58
2022-12-15T18:57:28.452Z,82.58
2022-12-15T19:00:07.962Z,82.57
2022-12-15T19:02:34.630Z,82.84
2022-12-15T19:05:01.388Z,82.65
2022-12-15T19:07:27.961Z,83.09
2022-12-15T19:09:54.898Z,84.28
2022-12-15T19:12:21.762Z,84.29
2022-12-15T19:14:50.868Z,84.18
2022-12-15T19:17:39.633Z,83.67
2022-12-15T19:20:35.141Z,83.84
2022-12-15T19:23:01.964Z,84.70
2022-12-15T19:25:29.579Z,84.91
2022-12-15T19:28:01.348Z,85.47
2022-12-15T19:30:35.884Z,85.59
2022-12-15T19:33:07.438Z,85.98
2022-12-15T19:35:34.250Z,86.10
2022-12-15T19:38:03.456Z,86.09
2022-12-15T19:40:32.897Z,86.56
2022-12-15T19:43:00.848Z,86.66
2022-12-15T19:45:30.067Z,86.58
2022-12-15T19:47:57.288Z,86.53
2022-12-15T19:50:37.106Z,86.63
2022-12-15T19:53:11.620Z,86.77
2022-12-15T19:55:38.691Z,86.75
2022-12-15T19:58:33.078Z,86.69
2022-12-15T20:01:10.048Z,86.81
2022-12-15T20:03:37.411Z,86.39
2022-12-15T20:06:11.944Z,86.57
2022-12-15T20:08:41.924Z,86.21
2022-12-15T20:11:27.761Z,86.30
2022-12-15T20:13:56.098Z,86.06
2022-12-15T20:16:24.075Z,85.89
2022-12-15T20:18:53.411Z,85.78
2022-12-15T20:21:23.258Z,85.51
2022-12-15T20:24:00.587Z,85.62
2022-12-15T20:26:29.448Z,85.24
2022-12-15T20:28:56.816Z,84.89
2022-12-15T20:31:25.214Z,85.08
2022-12-15T20:33:52.511Z,85.03
2022-12-15T20:36:22.198Z,84.72
2022-12-15T20:38:49.001Z,84.71
2022-12-15T20:41:22.003Z,84.62
2022-12-15T20:43:49.470Z,84.51
2022-12-15T20:46:21.154Z,84.39
2022-12-15T20:48:49.344Z,84.31
2022-12-15T20:51:22.010Z,84.17
2022-12-15T20:53:49.600Z,84.01
2022-12-15T20:56:17.574Z,83.96
2022-12-15T20:58:46.101Z,83.69
2022-12-15T21:01:18.926Z,83.68
2022-12-15T21:03:46.861Z,83.64
2022-12-15T21:06:13.628Z,83.28
2022-12-15T21:08:40.656Z,83.11
2022-12-15T21:11:15.218Z,83.36
2022-12-15T21:13:42.890Z,83.45
2022-12-15T21:16:15.885Z,83.29
2022-12-15T21:19:19.211Z,83.20
2022-12-15T21:21:35.259Z,83.36
2022-12-15T21:24:12.954Z,83.27
2022-12-15T21:26:39.609Z,83.55
2022-12-15T21:29:12.832Z,83.23
2022-12-15T21:31:39.388Z,83.36
2022-12-15T21:34:09.440Z,83.22
2022-12-15T21:36:37.596Z,83.17
2022-12-15T21:39:06.884Z,83.29
2022-12-15T21:41:34.304Z,83.01
2022-12-15T21:44:01.001Z,82.47
2022-12-15T21:46:31.135Z,82.45
2022-12-15T21:49:18.016Z,82.13
2022-12-15T21:51:44.905Z,81.78
2022-12-15T21:54:30.456Z,81.96
2022-12-15T21:56:58.824Z,81.60
2022-12-15T21:59:27.875Z,82.16
2022-12-15T22:01:56.001Z,81.80
2022-12-15T22:04:32.168Z,82.15
2022-12-15T22:06:58.916Z,82.24
2022-12-15T22:09:25.632Z,82.17
2022-12-15T22:11:54.046Z,81.74
2022-12-15T22:14:29.655Z,81.97
2022-12-15T22:16:57.801Z,81.89
2022-12-15T22:19:27.021Z,81.87
2022-12-15T22:21:54.112Z,82.13
2022-12-15T22:24:21.819Z,82.15
2022-12-15T22:26:48.579Z,82.01
2022-12-15T22:29:21.697Z,81.84
2022-12-15T22:31:52.845Z,81.68
2022-12-15T22:34:25.489Z,81.94
2022-12-15T22:36:52.257Z,81.58
2022-12-15T22:39:22.335Z,81.88
2022-12-15T22:41:51.685Z,81.69
2022-12-15T22:44:26.875Z,81.97
2022-12-15T22:46:56.545Z,82.00
2022-12-15T22:49:28.791Z,81.50
2022-12-15T22:51:55.493Z,81.53
2022-12-15T22:54:24.464Z,81.21
2022-12-15T22:56:58.471Z,81.09
2022-12-15T22:59:29.463Z,80.72
2022-12-15T23:01:56.438Z,80.63
2022-12-15T23:04:24.042Z,80.10
2022-12-15T23:06:50.677Z,79.83
2022-12-15T23:09:18.611Z,80.04
2022-12-15T23:11:45.158Z,79.77
2022-12-15T23:14:14.752Z,80.28
2022-12-15T23:16:43.458Z,80.20
2022-12-15T23:19:23.486Z,80.31
2022-12-15T23:21:51.526Z,80.49
2022-12-15T23:24:20.510Z,80.60
2022-12-15T23:26:47.009Z,80.84
2022-12-15T23:29:16.761Z,80.21
2022-12-15T23:31:43.474Z,80.29
2022-12-15T23:34:12.762Z,80.79
2022-12-15T23:36:39.475Z,80.41
2022-12-15T23:39:06.151Z,80.37
2022-12-15T23:41:33.033Z,79.85
2022-12-15T23:43:59.831Z,79.96
2022-12-15T23:46:26.330Z,79.64
2022-12-15T23:48:52.858Z,79.40
2022-12-15T23:51:21.609Z,79.57
2022-12-15T23:53:48.236Z,79.78
2022-12-15T23:56:20.385Z,79.55
2022-12-15T23:58:49.555Z,79.62
